Enter the Airport ICAO Code

Search by Airport or City

Current Weather

MROC | Juan Santamaría International Airport

San José, Costa Rica

Last Update 7 Minutes Ago

Completely Cloudy Sky

Temperature of 22 ºC

Light to Moderate Winds from West

Temperature

22 ºC

Dew Point Temperature

19 ºC

Relative Humidity

83.2 %

Wind Direction

West (250º, Without Significant Variations)

Wind Velocity

13 km/h (07 kt)

Gusts

None

Visibility

Greater than 10 Kilometers

Sea Level Pressure

29.95 inHg (Inches of Mercury)

Layers of Clouds

60% to 90% of Sky Covered from 610 mts (2000 ft) Above Ground Level.

90% to 100% of Sky Covered from 3048 mts (10000 ft) Above Ground Level.

METAR MROC 022100Z 25007KT 9999 BKN020 OVC100 22/19 A2995 TEMPO RA

Weather Forecast

MROC | Juan Santamaría International Airport

San José, Costa Rica

Forecast valid for the next 21 Hours

From now on it is expected:

Mostly Cloudy Sky

Light to Moderate Winds from West

From now on it is expected 3 hours with intermittent periods of:

Rain

In 3 to 5 hours it is expected the begining of:

Moderate Winds from East

Maximum Temperature

26 ºC in -3 Hours

Minimum Temperature

20 ºC in 14 Hours

TAF MROC 021712Z 0218/0318 11010KT 9999 FEW035 BKN120 TX26/0218Z TN20/0311Z FM021800 26006KT 9999 BKN030 TEMPO 0218/0224 RA BECMG 0300/0302 10010KT